Time;durP1;ratioP1;P1;durP2;ratioP2;P2;SDS_P1;SDS_P2;PMS_P1;PMS_P2;Temp;Humidity;BMP_temperature;BMP_pressure;BME280_temperature;BME280_humidity;BME280_pressure;Samples;Min_cycle;Max_cycle;Signal;HPM_P1;HPM_P2
2022/08/30 00:03:18;;;;;;;7.88;4.65;;;;;;;18.96;63.70;100623.03;6041467;23;101602;-82
2022/08/30 00:05:44;;;;;;;7.82;4.53;;;;;;;18.94;63.40;100610.81;6038378;23;97150;-82
2022/08/30 00:08:10;;;;;;;8.95;4.78;;;;;;;18.90;63.65;100617.25;6012968;23;97085;-83
2022/08/30 00:10:37;;;;;;;7.40;4.32;;;;;;;18.84;64.02;100613.19;6037336;23;97751;-82
2022/08/30 00:13:04;;;;;;;8.27;4.15;;;;;;;18.68;64.09;100593.81;6037692;23;101204;-86
2022/08/30 00:15:29;;;;;;;11.90;5.25;;;;;;;18.85;64.00;100620.22;6038471;23;97096;-81
2022/08/30 00:17:55;;;;;;;9.25;4.60;;;;;;;18.71;64.33;100618.41;6038115;23;97816;-83
2022/08/30 00:20:26;;;;;;;6.90;4.30;;;;;;;18.80;64.06;100621.47;6037854;23;97390;-84
2022/08/30 00:22:51;;;;;;;7.00;4.33;;;;;;;18.81;63.82;100616.03;6063505;23;97482;-81
2022/08/30 00:25:18;;;;;;;13.55;4.97;;;;;;;18.80;63.90;100630.28;6014807;23;97055;-83
2022/08/30 00:27:44;;;;;;;7.78;5.05;;;;;;;18.72;63.92;100622.75;6039321;23;97102;-83
2022/08/30 00:30:11;;;;;;;7.95;4.78;;;;;;;18.66;64.53;100624.97;6038570;23;101052;-83
2022/08/30 00:32:36;;;;;;;13.10;4.88;;;;;;;18.68;64.28;100625.72;6038574;23;101331;-82
2022/08/30 00:35:03;;;;;;;6.63;4.40;;;;;;;18.61;64.38;100617.25;6018640;23;97462;-84
2022/08/30 00:37:29;;;;;;;10.65;5.20;;;;;;;18.70;64.10;100629.13;6010050;23;96791;-82
2022/08/30 00:39:54;;;;;;;15.13;5.88;;;;;;;18.59;64.49;100619.19;6060112;23;98403;-85
2022/08/30 00:42:21;;;;;;;10.82;5.40;;;;;;;18.67;64.32;100629.31;6009682;23;97447;-82
2022/08/30 00:44:47;;;;;;;10.43;5.00;;;;;;;18.68;64.20;100625.72;6010612;23;96574;-82
2022/08/30 00:47:12;;;;;;;6.47;4.53;;;;;;;18.57;64.41;100626.38;5986106;23;96842;-83
2022/08/30 00:49:41;;;;;;;9.05;4.97;;;;;;;18.59;64.09;100621.84;6010147;23;98476;-82
2022/08/30 00:52:08;;;;;;;11.40;5.65;;;;;;;18.40;64.57;100611.47;6009512;23;99540;-82
2022/08/30 00:54:35;;;;;;;9.95;5.85;;;;;;;18.45;64.37;100611.22;5986438;23;97018;-81
2022/08/30 00:57:01;;;;;;;8.93;6.38;;;;;;;18.51;64.62;100618.81;6010317;23;96938;-81
2022/08/30 00:59:27;;;;;;;15.63;7.32;;;;;;;18.43;64.73;100611.28;5985523;23;101382;-84
2022/08/30 01:01:53;;;;;;;13.15;6.75;;;;;;;18.48;64.80;100619.00;6010158;23;97691;-82
2022/08/30 01:04:21;;;;;;;13.07;7.40;;;;;;;18.38;65.02;100609.88;5985545;23;97066;-82
2022/08/30 01:06:47;;;;;;;12.98;9.07;;;;;;;18.39;65.06;100616.91;6033913;23;96754;-82
2022/08/30 01:09:13;;;;;;;16.95;10.35;;;;;;;18.32;65.11;100614.63;6009176;23;101523;-82
2022/08/30 01:11:40;;;;;;;18.90;12.68;;;;;;;18.35;64.71;100612.72;5985984;23;101148;-83
2022/08/30 01:14:06;;;;;;;18.23;13.57;;;;;;;18.29;65.20;100612.13;6010139;23;96657;-82
2022/08/30 01:16:33;;;;;;;21.95;13.77;;;;;;;18.15;64.84;100595.34;6010705;23;96840;-83
2022/08/30 01:18:59;;;;;;;17.92;12.55;;;;;;;18.19;65.17;100607.50;6009768;23;101210;-82
2022/08/30 01:21:30;;;;;;;15.98;12.23;;;;;;;18.14;65.43;100612.25;5985607;23;99700;-85
2022/08/30 01:23:57;;;;;;;14.93;11.18;;;;;;;18.23;65.01;100620.50;6009151;23;97168;-83
2022/08/30 01:26:24;;;;;;;15.48;10.80;;;;;;;18.17;65.20;100618.22;6009471;23;97208;-83
2022/08/30 01:28:54;;;;;;;19.23;10.95;;;;;;;18.17;65.42;100623.53;6009762;23;100927;-82
2022/08/30 01:31:19;;;;;;;13.90;9.48;;;;;;;18.09;65.38;100612.50;6009233;23;102000;-83
2022/08/30 01:33:45;;;;;;;11.10;8.25;;;;;;;18.16;65.20;100613.00;6013119;23;96645;-82
2022/08/30 01:36:12;;;;;;;12.40;7.80;;;;;;;18.13;65.50;100622.00;6038367;23;96834;-82
2022/08/30 01:38:54;;;;;;;15.38;8.38;;;;;;;18.10;65.41;100619.53;6038466;23;101187;-82
2022/08/30 01:41:22;;;;;;;10.88;6.80;;;;;;;17.89;66.01;100600.44;6038932;23;97953;-82
2022/08/30 01:43:50;;;;;;;15.10;7.28;;;;;;;18.08;65.26;100624.94;6014771;23;97056;-82
2022/08/30 01:46:18;;;;;;;8.32;6.50;;;;;;;18.02;65.30;100617.34;6014610;23;96840;-82
2022/08/30 01:48:45;;;;;;;13.20;6.70;;;;;;;18.12;65.18;100624.75;6037623;23;101124;-82
2022/08/30 01:51:12;;;;;;;8.35;6.10;;;;;;;17.93;65.57;100614.41;6038242;23;97693;-84
2022/08/30 01:53:41;;;;;;;11.50;5.88;;;;;;;17.95;65.49;100626.63;6062512;23;97168;-82
2022/08/30 01:56:08;;;;;;;11.90;6.07;;;;;;;17.85;65.76;100609.53;6015081;23;96757;-83
2022/08/30 01:58:34;;;;;;;11.50;5.35;;;;;;;17.93;65.88;100623.22;6038695;23;101178;-83
2022/08/30 02:01:03;;;;;;;9.68;5.97;;;;;;;17.88;65.71;100612.00;6014889;23;100955;-82
2022/08/30 02:03:33;;;;;;;11.85;7.30;;;;;;;17.92;65.67;100631.25;6037679;23;97205;-83
2022/08/30 02:06:04;;;;;;;12.35;6.72;;;;;;;17.77;66.14;100625.03;6016216;23;97182;-82
2022/08/30 02:08:29;;;;;;;12.75;6.05;;;;;;;17.68;65.87;100615.81;6037451;23;101824;-82
2022/08/30 02:10:55;;;;;;;12.15;6.00;;;;;;;17.78;66.39;100634.75;6063413;23;98000;-83
2022/08/30 02:13:20;;;;;;;9.90;5.93;;;;;;;17.78;66.16;100635.59;6062373;23;96972;-82
2022/08/30 02:15:45;;;;;;;7.75;5.75;;;;;;;17.72;66.35;100624.47;6063308;23;97045;-82
2022/08/30 02:18:11;;;;;;;9.73;5.78;;;;;;;17.84;66.00;100639.69;6037956;23;99979;-82
2022/08/30 02:20:38;;;;;;;12.52;5.20;;;;;;;17.94;66.30;100653.28;6038683;23;97472;-82
2022/08/30 02:23:03;;;;;;;8.27;5.47;;;;;;;17.88;66.25;100652.69;6037972;23;96670;-83
2022/08/30 02:25:29;;;;;;;8.25;5.45;;;;;;;18.01;66.35;100638.69;6063066;23;96790;-82
2022/08/30 02:27:54;;;;;;;9.40;5.80;;;;;;;18.02;66.18;100638.59;6038380;23;101462;-83
2022/08/30 02:30:20;;;;;;;8.95;5.28;;;;;;;18.05;66.03;100632.25;6039202;23;98661;-82
2022/08/30 02:32:45;;;;;;;9.93;5.82;;;;;;;18.06;66.34;100637.47;6038278;23;96830;-82
2022/08/30 02:35:11;;;;;;;9.77;5.85;;;;;;;18.06;66.55;100631.28;6062624;23;97054;-83
2022/08/30 02:37:36;;;;;;;10.52;6.20;;;;;;;18.01;66.66;100642.19;6037746;23;100944;-82
2022/08/30 02:40:03;;;;;;;8.63;5.60;;;;;;;18.03;66.58;100636.78;6038334;23;98052;-82
2022/08/30 02:42:28;;;;;;;11.10;6.00;;;;;;;18.07;66.34;100630.34;6038012;23;97107;-82
2022/08/30 02:44:55;;;;;;;9.52;5.45;;;;;;;18.14;66.33;100639.66;6038742;23;96847;-82
2022/08/30 02:47:21;;;;;;;8.20;5.20;;;;;;;18.25;66.04;100639.84;6062603;23;97918;-84
2022/08/30 02:49:46;;;;;;;9.23;5.55;;;;;;;18.33;65.95;100655.34;6062597;23;97928;-82
2022/08/30 02:52:12;;;;;;;8.73;5.45;;;;;;;18.18;66.33;100637.66;6062254;23;97037;-83
2022/08/30 02:54:37;;;;;;;10.65;5.80;;;;;;;18.29;65.88;100638.72;6015033;23;96969;-83
2022/08/30 02:57:05;;;;;;;6.70;4.70;;;;;;;18.36;66.03;100649.00;6037895;23;100733;-82
2022/08/30 02:59:31;;;;;;;9.70;5.18;;;;;;;18.25;66.15;100646.97;6038422;23;100801;-82
2022/08/30 03:01:57;;;;;;;15.40;6.03;;;;;;;18.26;66.20;100632.72;6012380;23;97884;-83
2022/08/30 03:04:22;;;;;;;7.85;5.22;;;;;;;18.22;66.09;100640.03;6012333;23;97134;-83
2022/08/30 03:06:48;;;;;;;9.00;5.40;;;;;;;18.19;66.68;100648.22;6035589;23;97857;-85
2022/08/30 03:09:13;;;;;;;9.30;5.15;;;;;;;18.09;66.78;100642.59;6012461;23;101158;-83
2022/08/30 03:11:39;;;;;;;9.25;5.43;;;;;;;18.09;67.11;100650.56;6038243;23;97279;-83
2022/08/30 03:14:05;;;;;;;9.02;5.47;;;;;;;18.12;66.92;100646.84;6014726;23;96839;-83
2022/08/30 03:16:30;;;;;;;8.45;5.18;;;;;;;18.05;66.75;100624.28;6011972;23;101515;-84
2022/08/30 03:18:56;;;;;;;10.63;5.60;;;;;;;18.21;66.58;100638.34;6013306;23;101361;-83
2022/08/30 03:21:21;;;;;;;8.05;5.38;;;;;;;18.19;66.59;100640.22;6013325;23;97119;-86
2022/08/30 03:23:47;;;;;;;7.78;5.03;;;;;;;18.31;66.53;100642.13;6038337;23;97057;-83
2022/08/30 03:26:13;;;;;;;7.72;5.38;;;;;;;18.25;66.58;100641.66;6013113;23;101577;-83
2022/08/30 03:28:41;;;;;;;10.68;5.68;;;;;;;18.40;66.02;100646.03;6062662;23;98330;-82
2022/08/30 03:31:07;;;;;;;11.27;5.57;;;;;;;18.31;66.40;100636.81;6014188;23;96914;-86
2022/08/30 03:33:33;;;;;;;10.38;5.32;;;;;;;18.26;66.64;100640.72;6062270;23;96849;-83
2022/08/30 03:35:59;;;;;;;12.70;5.80;;;;;;;18.25;67.26;100639.00;6038548;23;97892;-82
2022/08/30 03:38:24;;;;;;;10.25;6.03;;;;;;;18.23;66.97;100638.25;6037245;23;101605;-83
2022/08/30 03:40:50;;;;;;;9.07;5.18;;;;;;;18.25;67.18;100641.66;6038506;23;96598;-83
2022/08/30 03:43:16;;;;;;;10.27;5.80;;;;;;;18.19;67.49;100640.22;6038612;23;96754;-82
2022/08/30 03:45:41;;;;;;;10.07;5.63;;;;;;;18.12;67.38;100635.38;6038471;23;97990;-82
2022/08/30 03:48:07;;;;;;;8.70;5.07;;;;;;;18.23;67.42;100652.38;6036093;23;100326;-86
2022/08/30 03:50:34;;;;;;;7.68;5.20;;;;;;;18.22;67.41;100647.16;6036109;23;97569;-83
2022/08/30 03:53:00;;;;;;;12.38;5.70;;;;;;;17.95;67.50;100621.31;6036328;23;96933;-82
2022/08/30 03:55:27;;;;;;;10.82;6.53;;;;;;;18.15;67.56;100643.16;6035219;23;101418;-85
2022/08/30 03:57:52;;;;;;;10.45;5.70;;;;;;;18.18;67.55;100650.94;6035775;23;101089;-84
2022/08/30 04:00:19;;;;;;;12.15;5.65;;;;;;;18.08;67.44;100629.41;6036595;23;97136;-82
2022/08/30 04:02:44;;;;;;;15.98;6.03;;;;;;;18.17;67.71;100651.91;6037779;23;97120;-83
2022/08/30 04:05:10;;;;;;;9.10;4.65;;;;;;;18.26;67.30;100654.84;6037446;23;100054;-85
2022/08/30 04:07:36;;;;;;;9.23;5.18;;;;;;;18.30;67.38;100658.19;6038076;23;97630;-82
2022/08/30 04:10:06;;;;;;;6.97;5.43;;;;;;;18.13;67.31;100637.09;6013835;23;96763;-83
2022/08/30 04:12:32;;;;;;;10.40;5.90;;;;;;;18.21;67.57;100656.94;6062083;23;97010;-83
2022/08/30 04:14:58;;;;;;;9.27;5.50;;;;;;;18.25;67.78;100658.47;6013634;23;101472;-82
2022/08/30 04:17:23;;;;;;;10.48;5.70;;;;;;;18.22;67.42;100656.00;6013329;23;101465;-82
2022/08/30 04:19:49;;;;;;;9.90;6.20;;;;;;;18.24;67.34;100661.22;6062589;23;96805;-82
2022/08/30 04:22:14;;;;;;;9.00;5.57;;;;;;;18.10;67.90;100644.31;6037378;23;97240;-82
2022/08/30 04:24:40;;;;;;;7.68;6.13;;;;;;;18.17;67.55;100655.41;6037761;23;98113;-82
2022/08/30 04:27:07;;;;;;;9.77;5.32;;;;;;;18.19;67.62;100664.16;6061198;23;98519;-82
2022/08/30 04:29:33;;;;;;;11.25;6.78;;;;;;;18.10;67.56;100635.47;6037072;23;96734;-82
2022/08/30 04:31:58;;;;;;;12.38;6.60;;;;;;;18.16;67.72;100659.03;6013989;23;96707;-83
2022/08/30 04:34:24;;;;;;;7.53;5.47;;;;;;;18.21;67.70;100669.34;6036914;23;99824;-83
2022/08/30 04:36:49;;;;;;;9.57;5.28;;;;;;;18.28;67.27;100666.25;6013283;23;101511;-82
2022/08/30 04:39:16;;;;;;;9.32;5.53;;;;;;;18.39;67.05;100675.38;6061483;23;96923;-83
2022/08/30 04:41:42;;;;;;;14.18;6.15;;;;;;;18.41;66.80;100669.00;6037888;23;96880;-83
2022/08/30 04:44:07;;;;;;;11.85;6.32;;;;;;;18.33;67.12;100658.00;6038241;23;101249;-83
2022/08/30 04:46:34;;;;;;;9.65;5.28;;;;;;;18.49;66.75;100685.34;6037611;23;98062;-82
2022/08/30 04:49:00;;;;;;;12.43;6.28;;;;;;;18.57;66.80;100686.69;6013951;23;97069;-83
2022/08/30 04:51:26;;;;;;;14.75;7.43;;;;;;;18.54;66.73;100688.56;6037298;23;97261;-83
2022/08/30 04:53:51;;;;;;;11.20;6.15;;;;;;;18.56;66.54;100685.84;6037841;23;101225;-82
2022/08/30 04:56:21;;;;;;;9.55;6.63;;;;;;;18.55;66.67;100694.72;6013811;23;101104;-83
2022/08/30 04:58:47;;;;;;;10.95;5.85;;;;;;;18.57;66.51;100686.69;6038351;23;97108;-83
2022/08/30 05:01:15;;;;;;;10.13;6.57;;;;;;;18.55;66.57;100686.75;6013604;23;97027;-84
2022/08/30 05:03:40;;;;;;;10.80;7.07;;;;;;;18.44;66.33;100668.84;6036882;23;101343;-83
2022/08/30 05:06:06;;;;;;;10.63;6.32;;;;;;;18.62;66.09;100692.56;6037373;23;100810;-83
2022/08/30 05:08:31;;;;;;;14.18;6.00;;;;;;;18.56;66.64;100688.50;6038506;23;96691;-83
2022/08/30 05:10:57;;;;;;;11.18;6.90;;;;;;;18.51;66.32;100688.75;6015420;23;96831;-83
2022/08/30 05:13:23;;;;;;;14.38;7.57;;;;;;;18.64;66.26;100698.63;6038542;23;101687;-83
2022/08/30 05:15:48;;;;;;;12.35;7.25;;;;;;;18.64;66.39;100704.78;6039256;23;101926;-83
2022/08/30 05:18:14;;;;;;;11.07;6.75;;;;;;;18.62;66.57;100692.56;6038437;23;96995;-83
2022/08/30 05:20:41;;;;;;;11.15;6.97;;;;;;;18.70;66.49;100685.84;6014702;23;97073;-83
2022/08/30 05:23:07;;;;;;;13.30;7.05;;;;;;;18.65;66.30;100689.72;6038296;23;100760;-83
2022/08/30 05:25:36;;;;;;;10.80;6.63;;;;;;;18.68;66.47;100686.88;6013457;23;101513;-82
2022/08/30 05:28:03;;;;;;;14.38;7.13;;;;;;;18.74;66.49;100695.34;6036884;23;98073;-84
2022/08/30 05:30:31;;;;;;;17.38;7.57;;;;;;;18.76;66.35;100695.25;6062310;23;96846;-84
2022/08/30 05:32:57;;;;;;;13.80;7.85;;;;;;;18.81;66.52;100700.28;6014303;23;101394;-83
2022/08/30 05:35:22;;;;;;;13.27;7.88;;;;;;;18.77;65.96;100694.31;6038301;23;101046;-84
2022/08/30 05:37:48;;;;;;;15.75;7.35;;;;;;;18.79;66.52;100700.38;6035780;23;97022;-84
2022/08/30 05:40:16;;;;;;;13.77;6.95;;;;;;;18.81;66.35;100700.28;6038880;23;97108;-87
2022/08/30 05:42:45;;;;;;;10.55;7.40;;;;;;;18.81;66.45;100706.44;6039290;23;97611;-83
2022/08/30 05:45:11;;;;;;;10.85;7.45;;;;;;;18.88;66.40;100699.81;6014972;23;101470;-84
2022/08/30 05:47:37;;;;;;;9.80;7.22;;;;;;;19.02;66.18;100708.72;6038640;23;96941;-83
2022/08/30 05:50:05;;;;;;;11.18;7.68;;;;;;;18.94;66.18;100696.78;6015481;23;96800;-83
2022/08/30 05:52:36;;;;;;;11.80;7.93;;;;;;;19.03;66.36;100705.97;6037463;23;99859;-84
2022/08/30 05:55:03;;;;;;;13.32;7.97;;;;;;;19.08;66.32;100706.53;6036330;23;97818;-83
2022/08/30 05:57:31;;;;;;;13.00;7.10;;;;;;;19.15;66.18;100701.69;6037586;23;96835;-84
2022/08/30 05:59:57;;;;;;;14.02;7.85;;;;;;;19.23;66.07;100696.72;6013605;23;96744;-83
2022/08/30 06:02:22;;;;;;;17.45;7.78;;;;;;;19.28;65.92;100699.06;6036477;23;101379;-82
2022/08/30 06:04:48;;;;;;;13.55;8.10;;;;;;;19.32;65.96;100706.78;6037436;23;100819;-83
2022/08/30 06:07:13;;;;;;;15.48;8.07;;;;;;;19.28;66.07;100704.41;6036526;23;97169;-85
2022/08/30 06:09:39;;;;;;;14.90;8.18;;;;;;;19.33;65.83;100699.63;6037874;23;96740;-82
2022/08/30 06:12:04;;;;;;;12.57;7.90;;;;;;;19.39;65.87;100712.53;6037258;23;100744;-83
2022/08/30 06:14:30;;;;;;;13.98;8.48;;;;;;;19.37;65.66;100707.34;6087418;23;97441;-83
2022/08/30 06:16:57;;;;;;;13.93;7.90;;;;;;;19.46;65.66;100711.22;6036436;23;96725;-83
2022/08/30 06:19:22;;;;;;;13.52;7.78;;;;;;;19.53;65.58;100715.16;6036853;23;97418;-83
2022/08/30 06:21:49;;;;;;;10.93;7.97;;;;;;;19.59;65.51;100714.78;6038091;23;101504;-82
2022/08/30 06:24:14;;;;;;;14.63;8.23;;;;;;;19.68;65.35;100714.19;6062751;23;101054;-85
2022/08/30 06:26:42;;;;;;;17.20;8.18;;;;;;;19.80;65.35;100709.00;6014786;23;97026;-81
2022/08/30 06:29:10;;;;;;;14.48;8.38;;;;;;;19.91;64.90;100714.47;6038887;23;97081;-80
2022/08/30 06:31:35;;;;;;;15.55;8.63;;;;;;;19.96;64.88;100714.19;6062915;23;98033;-82
2022/08/30 06:34:02;;;;;;;10.30;7.40;;;;;;;19.95;64.44;100707.13;6038926;23;97899;-84
2022/08/30 06:36:27;;;;;;;14.15;7.70;;;;;;;20.07;63.93;100717.84;6038594;23;97074;-83
2022/08/30 06:38:55;;;;;;;11.48;7.93;;;;;;;20.13;64.53;100721.91;6039355;23;96896;-82
2022/08/30 06:41:23;;;;;;;21.20;7.95;;;;;;;20.01;64.90;100726.25;6037478;23;101210;-82
2022/08/30 06:43:49;;;;;;;11.90;7.38;;;;;;;19.98;64.93;100723.75;6038384;23;100816;-82
2022/08/30 06:46:18;;;;;;;16.95;7.55;;;;;;;20.07;64.86;100723.16;6037991;23;96633;-86
2022/08/30 06:48:44;;;;;;;12.90;6.82;;;;;;;20.10;64.66;100719.41;6014756;23;97046;-82
2022/08/30 06:51:09;;;;;;;9.95;7.53;;;;;;;20.12;64.50;100722.84;6037670;23;97400;-82
2022/08/30 06:53:35;;;;;;;14.98;6.93;;;;;;;20.24;64.43;100716.66;6013553;23;101214;-82
2022/08/30 06:56:03;;;;;;;15.05;7.28;;;;;;;20.31;64.47;100735.78;6014308;23;96639;-83
2022/08/30 06:58:30;;;;;;;12.90;7.32;;;;;;;20.22;64.47;100729.28;6063120;23;97048;-82
2022/08/30 07:00:55;;;;;;;14.20;6.70;;;;;;;20.23;64.57;100730.97;6008413;23;100293;-85
2022/08/30 07:03:21;;;;;;;12.10;6.75;;;;;;;20.31;64.61;100717.97;6055419;23;97497;-87
2022/08/30 07:05:48;;;;;;;12.68;7.13;;;;;;;20.44;64.19;100728.63;6036705;23;96765;-83
2022/08/30 07:08:13;;;;;;;16.17;8.48;;;;;;;20.45;63.84;100721.47;6037875;23;97142;-85
2022/08/30 07:10:40;;;;;;;14.65;7.85;;;;;;;20.59;64.08;100724.09;6037165;23;101110;-84
2022/08/30 07:13:06;;;;;;;10.25;7.40;;;;;;;20.90;63.14;100729.94;6037725;23;101024;-83
2022/08/30 07:15:32;;;;;;;11.93;7.10;;;;;;;21.24;62.50;100733.75;6037601;23;97113;-84
2022/08/30 07:20:41;;;;;;;8.43;6.20;;;;;;;21.80;60.89;100730.56;6041323;23;101839;-84
2022/08/30 07:23:08;;;;;;;8.82;5.90;;;;;;;23.21;57.66;100733.03;6061984;23;98190;-84
2022/08/30 07:25:35;;;;;;;13.55;6.15;;;;;;;23.27;57.47;100732.53;6060933;23;96685;-84
2022/08/30 07:28:01;;;;;;;7.57;5.75;;;;;;;23.61;56.47;100716.41;6036897;23;97042;-84
2022/08/30 07:30:27;;;;;;;10.35;6.28;;;;;;;24.17;55.52;100734.97;6011625;23;101422;-85
2022/08/30 07:32:52;;;;;;;5.95;5.15;;;;;;;24.29;55.23;100716.97;6013053;23;101353;-87
2022/08/30 07:35:18;;;;;;;6.28;4.82;;;;;;;27.25;49.98;100722.22;6012717;23;97114;-87
2022/08/30 07:37:43;;;;;;;6.45;5.30;;;;;;;26.00;51.48;100733.16;6037618;23;96939;-85
2022/08/30 07:40:09;;;;;;;8.55;5.10;;;;;;;25.05;53.82;100733.66;6013116;23;101956;-84
2022/08/30 07:42:35;;;;;;;7.32;4.90;;;;;;;25.92;52.04;100731.19;6061237;23;97714;-83
2022/08/30 07:45:02;;;;;;;6.32;4.78;;;;;;;30.68;42.51;100721.22;6037872;23;96936;-83
2022/08/30 07:47:27;;;;;;;11.00;5.80;;;;;;;29.06;44.88;100733.53;6037737;23;96697;-83
2022/08/30 07:49:53;;;;;;;5.35;4.32;;;;;;;26.59;50.20;100736.66;6038203;23;97976;-84
2022/08/30 07:52:18;;;;;;;6.00;4.43;;;;;;;25.55;51.72;100738.22;6061245;23;97085;-86
2022/08/30 07:54:44;;;;;;;6.20;4.75;;;;;;;24.80;54.24;100740.34;6034699;23;97253;-85
2022/08/30 07:57:09;;;;;;;8.98;4.93;;;;;;;24.46;55.17;100743.25;6035688;23;97149;-84
2022/08/30 07:59:35;;;;;;;8.77;4.40;;;;;;;24.36;55.28;100750.34;6011489;23;100328;-83
2022/08/30 08:02:00;;;;;;;7.38;4.18;;;;;;;24.13;56.07;100730.84;6011537;23;101441;-83
2022/08/30 08:04:26;;;;;;;8.40;4.70;;;;;;;23.89;56.32;100739.13;6036029;23;97190;-85
2022/08/30 08:06:53;;;;;;;8.32;4.90;;;;;;;23.71;56.88;100747.72;6035324;23;97229;-85
2022/08/30 08:09:18;;;;;;;6.80;5.13;;;;;;;23.64;57.20;100753.66;6034547;23;100553;-86
2022/08/30 08:11:44;;;;;;;9.82;5.43;;;;;;;23.63;56.40;100746.63;6031936;23;101176;-85
2022/08/30 08:14:10;;;;;;;10.63;5.97;;;;;;;27.20;48.60;100746.94;6007809;23;96887;-83
2022/08/30 08:16:35;;;;;;;7.28;4.85;;;;;;;31.45;41.25;100733.34;6033768;23;97241;-85
2022/08/30 08:19:02;;;;;;;8.13;4.35;;;;;;;28.20;46.75;100755.91;6034181;23;101574;-87
2022/08/30 08:21:28;;;;;;;6.10;4.05;;;;;;;31.75;40.59;100758.75;6034505;23;100926;-87
2022/08/30 08:23:54;;;;;;;5.43;3.95;;;;;;;33.88;37.00;100740.16;6059209;23;96936;-85
2022/08/30 08:26:20;;;;;;;5.68;3.55;;;;;;;30.36;41.76;100745.66;6035193;23;97265;-86
2022/08/30 08:28:46;;;;;;;4.68;3.38;;;;;;;28.15;46.11;100742.03;6036275;23;101028;-87
2022/08/30 08:31:16;;;;;;;8.23;3.10;;;;;;;27.41;47.53;100737.75;6012980;23;101169;-86
2022/08/30 08:33:42;;;;;;;6.35;3.63;;;;;;;26.97;48.72;100751.00;6036766;23;96898;-86
2022/08/30 08:36:08;;;;;;;7.88;3.60;;;;;;;30.75;42.27;100756.59;6033715;23;97234;-86
2022/08/30 08:38:33;;;;;;;6.40;3.00;;;;;;;33.78;37.51;100745.94;6012074;23;101564;-87
2022/08/30 08:41:09;;;;;;;3.38;2.90;;;;;;;35.02;34.31;100742.69;6035627;23;100858;-86
2022/08/30 08:43:36;;;;;;;6.32;3.40;;;;;;;35.96;33.17;100747.47;6036225;23;97404;-86
2022/08/30 08:46:17;;;;;;;7.60;3.38;;;;;;;35.36;33.58;100747.28;6036775;23;96819;-85
2022/08/30 08:48:48;;;;;;;4.72;2.60;;;;;;;35.85;32.73;100746.19;6061547;23;97639;-86
2022/08/30 08:54:24;;;;;;;4.78;2.45;;;;;;;33.84;34.79;100747.03;6063373;23;97188;-87
2022/08/30 08:56:50;;;;;;;3.60;2.38;;;;;;;34.96;33.75;100741.63;6034445;23;97113;-85
2022/08/30 08:59:16;;;;;;;5.45;2.72;;;;;;;32.69;36.46;100738.44;6032734;23;98012;-86
2022/08/30 09:01:42;;;;;;;2.58;2.10;;;;;;;31.24;38.76;100742.91;6037814;23;100729;-87
2022/08/30 09:04:11;;;;;;;2.80;2.28;;;;;;;30.13;40.70;100742.75;6042080;23;97157;-85
2022/08/30 09:06:59;;;;;;;3.13;2.83;;;;;;;29.51;41.66;100738.59;6042244;23;96712;-88
2022/08/30 09:09:31;;;;;;;3.58;2.50;;;;;;;28.93;43.28;100750.19;6044388;23;100336;-88
2022/08/30 09:11:57;;;;;;;4.60;2.78;;;;;;;28.41;44.59;100752.88;6046840;23;98214;-87
2022/08/30 09:14:30;;;;;;;5.75;2.92;;;;;;;28.07;45.32;100747.34;6044674;23;97169;-88
2022/08/30 09:16:55;;;;;;;2.67;2.33;;;;;;;29.81;41.45;100736.31;6047038;23;97218;-89
2022/08/30 09:19:38;;;;;;;2.33;2.00;;;;;;;29.78;41.21;100742.06;6073667;23;97545;-91
2022/08/30 09:22:25;;;;;;;3.97;2.10;;;;;;;28.65;43.66;100757.59;6060299;23;101285;-91
2022/08/30 09:24:54;;;;;;;3.80;2.50;;;;;;;28.95;43.83;100752.72;6036575;23;96721;-89
2022/08/30 09:27:36;;;;;;;5.25;1.98;;;;;;;29.87;42.23;100745.63;6010640;23;97028;-88
2022/08/30 09:30:04;;;;;;;4.93;2.50;;;;;;;29.96;42.09;100747.31;6012684;23;101719;-89
2022/08/30 09:32:34;;;;;;;3.17;2.33;;;;;;;30.97;39.84;100749.59;6037236;23;97793;-89
2022/08/30 09:35:00;;;;;;;2.78;2.30;;;;;;;32.76;36.91;100751.31;6037758;23;97736;-88
2022/08/30 09:37:38;;;;;;;5.07;2.10;;;;;;;33.72;35.29;100736.66;6012427;23;97297;-85
2022/08/30 09:40:11;;;;;;;5.03;2.40;;;;;;;31.95;37.39;100743.69;6036745;23;101231;-87
2022/08/30 09:42:37;;;;;;;3.55;1.92;;;;;;;30.28;40.45;100735.66;6034396;23;101274;-87
2022/08/30 09:45:09;;;;;;;1.88;1.70;;;;;;;30.89;39.07;100749.63;6032745;23;97232;-88
2022/08/30 09:47:41;;;;;;;2.80;2.00;;;;;;;32.86;36.46;100713.81;6031744;23;97217;-87
2022/08/30 09:50:12;;;;;;;2.97;2.20;;;;;;;30.61;39.83;100736.47;6037319;23;101892;-89
2022/08/30 09:53:01;;;;;;;4.10;2.25;;;;;;;28.80;43.13;100744.38;6042117;23;101564;-91
2022/08/30 09:55:53;;;;;;;5.50;2.55;;;;;;;28.40;43.29;100719.63;6041478;23;96825;-90
2022/08/30 09:58:39;;;;;;;8.80;2.60;;;;;;;29.09;42.10;100730.53;6035500;23;96744;-84
2022/08/30 10:01:19;;;;;;;5.20;2.70;;;;;;;30.40;40.56;100733.47;6034865;23;98006;-85
2022/08/30 10:04:03;;;;;;;;;;;;;;;30.77;39.52;100741.00;6060863;23;97981;-81
2022/08/30 10:07:06;;;;;;;3.72;1.80;;;;;;;31.25;38.24;100732.91;6036250;23;96873;-86
2022/08/30 10:09:55;;;;;;;3.72;2.17;;;;;;;31.38;37.60;100726.91;6058765;23;97196;-85
2022/08/30 10:12:53;;;;;;;3.78;1.80;;;;;;;30.12;39.57;100724.84;6059829;23;100311;-86
2022/08/30 10:15:42;;;;;;;3.60;1.95;;;;;;;29.73;40.03;100717.34;6035925;23;100295;-87
2022/08/30 10:18:35;;;;;;;2.75;1.58;;;;;;;29.16;41.17;100714.50;6037011;23;96999;-85
2022/08/30 10:21:10;;;;;;;2.97;1.70;;;;;;;28.49;42.29;100707.06;5999044;23;96875;-83
2022/08/30 10:23:41;;;;;;;2.83;2.08;;;;;;;29.14;41.87;100705.72;6036368;23;98566;-84
2022/08/30 10:26:25;;;;;;;3.47;1.85;;;;;;;29.70;40.91;100712.28;6012781;23;101688;-84
2022/08/30 10:29:08;;;;;;;5.47;1.83;;;;;;;29.69;40.55;100722.25;6011483;23;97846;-85
2022/08/30 10:31:54;;;;;;;3.28;1.70;;;;;;;29.57;41.15;100707.34;6035030;23;97228;-84
2022/08/30 10:34:28;;;;;;;4.13;1.85;;;;;;;29.58;41.33;100709.03;6034998;23;101385;-84
2022/08/30 10:37:12;;;;;;;2.83;1.73;;;;;;;29.59;41.17;100707.19;6036621;23;99467;-84
2022/08/30 10:39:53;;;;;;;2.55;1.67;;;;;;;29.32;41.37;100696.50;6036621;23;97160;-84
2022/08/30 10:42:22;;;;;;;3.03;1.77;;;;;;;29.01;42.22;100708.84;6013083;23;97295;-85
2022/08/30 10:44:55;;;;;;;4.63;2.03;;;;;;;28.72;42.70;100706.53;6036582;23;101247;-86
2022/08/30 10:47:46;;;;;;;4.38;1.73;;;;;;;28.28;42.64;100701.16;6033783;23;100922;-84
2022/08/30 10:50:19;;;;;;;4.13;1.98;;;;;;;27.90;43.75;100708.63;6035348;23;97364;-85
2022/08/30 10:53:07;;;;;;;2.95;1.95;;;;;;;27.19;44.50;100680.56;6010912;23;97306;-85
2022/08/30 10:55:36;;;;;;;4.05;2.10;;;;;;;27.02;45.84;100709.16;6034571;23;100001;-85
2022/08/30 10:58:03;;;;;;;5.70;2.38;;;;;;;26.78;46.14;100715.03;6010171;23;99382;-84
2022/08/30 11:00:36;;;;;;;2.38;2.13;;;;;;;26.69;46.78;100704.31;6009692;23;97239;-85
2022/08/30 11:03:41;;;;;;;3.55;1.90;;;;;;;26.64;47.07;100707.44;6031962;23;97326;-84
2022/08/30 11:06:09;;;;;;;3.13;2.20;;;;;;;26.80;47.20;100720.31;6031712;23;100320;-84
2022/08/30 11:09:01;;;;;;;2.70;2.10;;;;;;;26.73;46.36;100714.63;6058013;23;98107;-85
2022/08/30 11:12:00;;;;;;;1.95;1.75;;;;;;;26.79;46.04;100700.59;6058867;23;96734;-82
2022/08/30 11:14:25;;;;;;;2.85;1.73;;;;;;;26.74;45.37;100702.88;6034756;23;97233;-84
2022/08/30 11:16:53;;;;;;;2.38;1.60;;;;;;;26.78;45.52;100706.97;6010796;23;100878;-84
2022/08/30 11:19:26;;;;;;;2.85;1.75;;;;;;;26.79;45.41;100697.91;6033960;23;101306;-84
2022/08/30 11:22:08;;;;;;;4.07;2.00;;;;;;;26.66;45.28;100693.84;6057604;23;96809;-85
2022/08/30 11:25:02;;;;;;;4.63;2.25;;;;;;;26.74;46.58;100708.28;6058070;23;97236;-85
2022/08/30 11:27:52;;;;;;;2.08;1.80;;;;;;;26.69;46.18;100686.31;6057917;23;101561;-84
2022/08/30 11:30:23;;;;;;;3.00;1.85;;;;;;;26.79;46.03;100699.72;6059104;23;97960;-83
2022/08/30 11:33:00;;;;;;;4.07;2.00;;;;;;;26.62;46.24;100702.22;6057033;23;96734;-82
2022/08/30 11:35:46;;;;;;;4.68;2.00;;;;;;;26.43;46.62;100692.31;6056582;23;96829;-80